createdAt,value
2023-01-21T00:02:28.030Z,1026.3
2023-01-21T00:07:47.120Z,1026.3
2023-01-21T00:13:44.160Z,1026.3
2023-01-21T00:19:15.081Z,1026.3
2023-01-21T00:24:25.262Z,1026.3
2023-01-21T00:30:01.856Z,1026.4
2023-01-21T00:35:36.704Z,1026.4
2023-01-21T00:41:15.395Z,1026.4
2023-01-21T00:46:46.760Z,1026.5
2023-01-21T00:52:14.399Z,1026.4
2023-01-21T00:57:42.211Z,1026.5
2023-01-21T01:03:27.774Z,1026.4
2023-01-21T01:08:42.063Z,1026.4
2023-01-21T01:14:28.397Z,1026.3
2023-01-21T01:20:03.891Z,1026.4
2023-01-21T01:25:24.941Z,1026.5
2023-01-21T01:31:17.839Z,1026.4
2023-01-21T01:36:46.631Z,1026.4
2023-01-21T01:47:38.683Z,1026.4
2023-01-21T01:53:18.141Z,1026.5
2023-01-21T01:58:53.253Z,1026.5
2023-01-21T02:04:17.625Z,1026.4
2023-01-21T02:09:40.784Z,1026.5
2023-01-21T02:15:18.919Z,1026.5
2023-01-21T02:20:45.327Z,1026.6
2023-01-21T02:26:27.326Z,1026.6
2023-01-21T02:32:06.311Z,1026.5
2023-01-21T02:37:42.209Z,1026.6
2023-01-21T02:43:00.664Z,1026.8
2023-01-21T02:48:41.691Z,1026.7
2023-01-21T02:54:20.873Z,1026.7
2023-01-21T02:59:34.909Z,1026.6
2023-01-21T03:05:05.779Z,1026.6
2023-01-21T03:10:36.258Z,1026.5
2023-01-21T03:16:11.578Z,1026.5
2023-01-21T03:21:42.301Z,1026.6
2023-01-21T03:27:35.245Z,1026.5
2023-01-21T03:32:47.978Z,1026.5
2023-01-21T03:38:39.759Z,1026.5
2023-01-21T03:44:09.519Z,1026.4
2023-01-21T03:49:27.703Z,1026.4
2023-01-21T03:55:14.672Z,1026.4
2023-01-21T04:00:37.876Z,1026.4
2023-01-21T04:06:17.594Z,1026.4
2023-01-21T04:11:54.200Z,1026.4
2023-01-21T04:17:03.605Z,1026.5
2023-01-21T04:22:43.834Z,1026.4
2023-01-21T04:28:12.826Z,1026.5
2023-01-21T04:33:55.683Z,1026.6
2023-01-21T04:39:29.652Z,1026.6
2023-01-21T04:44:59.146Z,1026.6
2023-01-21T04:50:37.944Z,1026.6
2023-01-21T04:56:00.173Z,1026.7
2023-01-21T05:01:42.135Z,1026.6
2023-01-21T05:07:10.212Z,1026.7
2023-01-21T05:12:52.944Z,1026.7
2023-01-21T05:18:11.751Z,1026.7
2023-01-21T05:23:38.511Z,1026.8
2023-01-21T05:29:23.921Z,1026.8
2023-01-21T05:35:03.230Z,1026.8
2023-01-21T05:40:19.822Z,1026.8
2023-01-21T05:46:11.144Z,1027
2023-01-21T05:51:32.218Z,1026.9
2023-01-21T05:57:08.362Z,1026.9
2023-01-21T06:02:30.152Z,1027
2023-01-21T06:08:21.122Z,1027
2023-01-21T06:13:43.833Z,1027
2023-01-21T06:19:13.640Z,1027
2023-01-21T06:24:51.641Z,1027.1
2023-01-21T06:30:22.098Z,1027.1
2023-01-21T06:35:48.166Z,1027.2
2023-01-21T06:41:15.039Z,1027.2
2023-01-21T06:47:01.288Z,1027.4
2023-01-21T06:52:14.566Z,1027.3
2023-01-21T06:58:07.270Z,1027.3
2023-01-21T07:03:42.590Z,1027.4
2023-01-21T07:09:19.230Z,1027.5
2023-01-21T07:14:42.822Z,1027.4
2023-01-21T07:20:22.672Z,1027.5
2023-01-21T07:25:51.243Z,1027.5
2023-01-21T07:31:25.748Z,1027.5
2023-01-21T07:37:01.386Z,1027.6
2023-01-21T07:42:27.525Z,1027.6
2023-01-21T07:47:44.806Z,1027.6
2023-01-21T07:53:29.600Z,1027.6
2023-01-21T07:59:03.372Z,1027.9
2023-01-21T08:04:32.620Z,1027.7
2023-01-21T08:10:02.566Z,1027.8
2023-01-21T08:15:21.354Z,1027.8
2023-01-21T08:20:58.641Z,1027.8
2023-01-21T08:26:33.391Z,1027.8
2023-01-21T08:32:14.074Z,1027.5
2023-01-21T08:37:43.312Z,1027.4
2023-01-21T08:43:05.390Z,1027.6
2023-01-21T08:49:04.092Z,1027.6
2023-01-21T08:54:21.552Z,1027.6
2023-01-21T08:59:58.673Z,1027.7
2023-01-21T09:05:22.177Z,1027.5
2023-01-21T09:10:47.429Z,1027.5
2023-01-21T09:16:30.714Z,1027.4
2023-01-21T09:22:07.875Z,1027.4
2023-01-21T09:27:44.017Z,1027.4
2023-01-21T09:33:25.264Z,1027.2
2023-01-21T09:38:43.275Z,1027.1
2023-01-21T09:44:18.664Z,1027.1
2023-01-21T09:49:51.347Z,1027.1
2023-01-21T09:55:32.500Z,1026.9
2023-01-21T10:01:09.305Z,1026.8
2023-01-21T10:06:23.493Z,1026.8
2023-01-21T10:12:15.495Z,1026.6
2023-01-21T10:17:47.291Z,1026.5
2023-01-21T10:23:30.766Z,1026.5
2023-01-21T10:28:53.187Z,1026.4
2023-01-21T10:34:37.281Z,1026.4
2023-01-21T10:39:59.232Z,1026.3
2023-01-21T10:45:17.620Z,1026.2
2023-01-21T10:50:51.971Z,1026.1
2023-01-21T10:56:48.819Z,1026.1
2023-01-21T11:02:22.319Z,1025.9
2023-01-21T11:07:48.791Z,1025.7
2023-01-21T11:13:32.873Z,1025.8
2023-01-21T11:18:53.462Z,1025.6
2023-01-21T11:24:38.192Z,1025.8
2023-01-21T11:29:54.996Z,1025.6
2023-01-21T11:35:33.591Z,1025.5
2023-01-21T11:41:02.431Z,1025.4
2023-01-21T11:46:49.415Z,1025.3
2023-01-21T11:52:14.688Z,1025.1
2023-01-21T11:57:37.588Z,1024.9
2023-01-21T12:03:23.547Z,1024.9
2023-01-21T12:08:49.190Z,1024.8
2023-01-21T12:14:32.296Z,1024.7
2023-01-21T12:20:07.356Z,1024.6
2023-01-21T12:25:39.280Z,1024.5
2023-01-21T12:31:03.302Z,1024.5
2023-01-21T12:36:40.314Z,1024.3
2023-01-21T12:42:19.852Z,1024.2
2023-01-21T12:47:52.499Z,1024
2023-01-21T12:53:45.027Z,1023.9
2023-01-21T12:58:52.543Z,1023.7
2023-01-21T13:04:30.111Z,1023.8
2023-01-21T13:10:08.495Z,1023.9
2023-01-21T13:15:45.875Z,1024
2023-01-21T13:21:28.488Z,1024
2023-01-21T13:32:42.095Z,1024
2023-01-21T13:37:57.642Z,1024.1
2023-01-21T13:43:49.677Z,1024.3
2023-01-21T13:49:14.133Z,1024.4
2023-01-21T13:54:54.956Z,1024.4
2023-01-21T14:00:33.569Z,1024.7
2023-01-21T14:06:00.151Z,1024.8
2023-01-21T14:11:15.816Z,1025
2023-01-21T14:17:03.374Z,1025
2023-01-21T14:22:40.505Z,1024.8
2023-01-21T14:28:16.980Z,1024.9
2023-01-21T14:33:35.184Z,1025
2023-01-21T14:39:17.172Z,1025.1
2023-01-21T14:45:06.391Z,1025.2
2023-01-21T14:50:40.431Z,1025.2
2023-01-21T14:56:01.580Z,1025.4
2023-01-21T15:01:32.671Z,1025.4
2023-01-21T15:06:59.876Z,1025.5
2023-01-21T15:12:47.417Z,1025.7
2023-01-21T15:18:30.384Z,1025.8
2023-01-21T15:23:50.569Z,1025.8
2023-01-21T15:29:10.429Z,1025.9
2023-01-21T15:34:52.773Z,1026
2023-01-21T15:40:34.692Z,1026
2023-01-21T15:45:55.074Z,1026.1
2023-01-21T15:51:41.270Z,1026.1
2023-01-21T15:57:00.662Z,1026.3
2023-01-21T16:02:51.514Z,1026.4
2023-01-21T16:08:09.481Z,1026.3
2023-01-21T16:13:46.744Z,1026.4
2023-01-21T16:19:16.331Z,1026.5
2023-01-21T16:24:49.820Z,1026.4
2023-01-21T16:30:33.079Z,1026.5
2023-01-21T16:36:12.956Z,1026.5
2023-01-21T16:41:46.461Z,1026.5
2023-01-21T16:47:19.959Z,1026.7
2023-01-21T16:53:02.337Z,1026.6
2023-01-21T16:58:16.073Z,1026.5
2023-01-21T17:04:10.711Z,1026.5
2023-01-21T17:09:39.541Z,1026.4
2023-01-21T17:15:01.905Z,1026.5
2023-01-21T17:20:37.202Z,1026.6
2023-01-21T17:26:00.769Z,1026.5
2023-01-21T17:31:43.780Z,1026.7
2023-01-21T17:37:22.139Z,1026.8
2023-01-21T17:42:53.073Z,1026.9
2023-01-21T17:48:29.750Z,1027
2023-01-21T17:54:05.211Z,1027
2023-01-21T17:59:33.345Z,1027
2023-01-21T18:05:19.066Z,1027
2023-01-21T18:10:38.341Z,1027.1
2023-01-21T18:16:14.263Z,1027.1
2023-01-21T18:22:04.660Z,1027.1
2023-01-21T18:27:15.054Z,1027.1
2023-01-21T18:32:47.004Z,1027.1
2023-01-21T18:38:43.780Z,1026.9
2023-01-21T18:44:16.095Z,1027
2023-01-21T18:49:40.208Z,1027
2023-01-21T18:55:00.948Z,1027
2023-01-21T19:00:51.219Z,1027
2023-01-21T19:06:35.822Z,1027
2023-01-21T19:12:04.761Z,1027
2023-01-21T19:17:33.426Z,1027.1
2023-01-21T19:23:15.246Z,1027.1
2023-01-21T19:28:25.678Z,1027.1
2023-01-21T19:34:12.318Z,1027.2
2023-01-21T19:39:54.257Z,1027.2
2023-01-21T19:45:05.600Z,1027.2
2023-01-21T19:50:57.548Z,1027.2
2023-01-21T19:56:36.423Z,1027.3
2023-01-21T20:01:55.323Z,1027.2
2023-01-21T20:07:33.900Z,1027.4
2023-01-21T20:13:17.913Z,1027.4
2023-01-21T20:18:50.449Z,1027.5
2023-01-21T20:24:02.618Z,1027.4
2023-01-21T20:30:02.509Z,1027.5
2023-01-21T20:35:15.445Z,1027.5
2023-01-21T20:41:01.043Z,1027.5
2023-01-21T20:46:26.219Z,1027.5
2023-01-21T20:51:55.335Z,1027.5
2023-01-21T20:57:38.940Z,1027.6
2023-01-21T21:03:01.075Z,1027.5
2023-01-21T21:08:58.887Z,1027.5
2023-01-21T21:14:05.542Z,1027.4
2023-01-21T21:20:06.359Z,1027.3
2023-01-21T21:25:32.210Z,1027.5
2023-01-21T21:30:50.852Z,1027.5
2023-01-21T21:36:41.871Z,1027.4
2023-01-21T21:42:01.673Z,1027.5
2023-01-21T21:47:35.179Z,1027.6
2023-01-21T21:53:11.133Z,1027.6
2023-01-21T21:58:58.336Z,1027.6
2023-01-21T22:04:21.660Z,1027.6
2023-01-21T22:09:47.932Z,1027.6
2023-01-21T22:15:40.103Z,1027.9
2023-01-21T22:21:06.041Z,1027.9
2023-01-21T22:26:39.664Z,1028
2023-01-21T22:32:23.584Z,1027.9
2023-01-21T22:37:46.706Z,1027.8
2023-01-21T22:43:18.021Z,1027.8
2023-01-21T22:48:50.489Z,1027.9
2023-01-21T22:54:19.479Z,1027.7
2023-01-21T23:00:08.527Z,1027.7
2023-01-21T23:05:29.697Z,1027.8
2023-01-21T23:11:09.391Z,1027.7
2023-01-21T23:16:51.109Z,1027.6
2023-01-21T23:22:21.167Z,1027.6
2023-01-21T23:27:42.833Z,1027.6
2023-01-21T23:33:38.417Z,1027.6
2023-01-21T23:38:54.947Z,1027.4
2023-01-21T23:44:37.827Z,1027.3
2023-01-21T23:50:11.103Z,1027.1
2023-01-21T23:55:32.384Z,1027.1
